Lemmon, South Dakota
Current Conditions -  °F | °C
As of 9:09 AM on Sunday 25 Jan 2015 (Local Time) from KHEI Reporting Station
Overcast Overcast  
Wind Chill: 28°   Ceiling: 12000
Heat Index: 35°   Visibility: 10mi
Dew Point: 27°   Wind: 9mph
Humidity: 72%   Direction: 320°NW
Pressure: 30.01"   Gusts: NA
Location:  45.94°N, 102.16°W
Report Text: KHEI 251609Z AUTO 32008KT 10SM SCT014 OVC120 02/M03 A3001 RMK AO2 T00171028
Loading
Personal Weather Stations






























Interactive Weather Map New forecast layout! Learn more

10-Day Weather Forecast

Advertisements
Track Severe Weather on mobile